createdAt,value
2023-11-03T00:00:16.067Z,1.02
2023-11-03T00:03:01.510Z,1.06
2023-11-03T00:05:47.007Z,1.05
2023-11-03T00:08:32.532Z,1.06
2023-11-03T00:11:17.901Z,1.06
2023-11-03T00:14:02.995Z,1.01
2023-11-03T00:16:48.573Z,1.11
2023-11-03T00:19:33.651Z,1.14
2023-11-03T00:22:19.219Z,0.99
2023-11-03T00:25:04.258Z,1.06
2023-11-03T00:27:49.719Z,0.99
2023-11-03T00:30:35.086Z,0.98
2023-11-03T00:33:20.843Z,1.18
2023-11-03T00:36:06.246Z,1.00
2023-11-03T00:38:51.361Z,0.85
2023-11-03T00:41:36.836Z,0.96
2023-11-03T00:44:22.190Z,0.97
2023-11-03T00:47:07.473Z,0.99
2023-11-03T00:49:52.588Z,1.07
2023-11-03T00:52:37.521Z,1.02
2023-11-03T00:55:22.472Z,0.94
2023-11-03T00:58:07.459Z,1.02
2023-11-03T01:00:52.816Z,0.91
2023-11-03T01:03:38.111Z,0.99
2023-11-03T01:06:23.604Z,1.08
2023-11-03T01:09:09.108Z,0.98
2023-11-03T01:11:54.143Z,1.15
2023-11-03T01:14:39.080Z,0.85
2023-11-03T01:17:24.757Z,0.96
2023-11-03T01:20:10.088Z,1.00
2023-11-03T01:22:55.483Z,0.91
2023-11-03T01:25:40.755Z,0.90
2023-11-03T01:28:25.750Z,0.88
2023-11-03T01:31:10.828Z,0.84
2023-11-03T01:33:56.218Z,0.87
2023-11-03T01:36:41.719Z,0.90
2023-11-03T01:39:26.929Z,0.92
2023-11-03T01:42:12.006Z,0.98
2023-11-03T01:44:57.612Z,0.96
2023-11-03T01:47:42.623Z,0.84
2023-11-03T01:50:28.178Z,0.87
2023-11-03T01:53:13.215Z,0.93
2023-11-03T01:55:58.893Z,0.87
2023-11-03T01:58:43.921Z,0.91
2023-11-03T02:01:29.265Z,0.93
2023-11-03T02:04:14.395Z,0.81
2023-11-03T02:06:59.809Z,0.88
2023-11-03T02:09:45.287Z,0.78
2023-11-03T02:12:30.600Z,0.90
2023-11-03T02:15:15.633Z,0.84
2023-11-03T02:18:00.708Z,0.79
2023-11-03T02:20:46.086Z,0.78
2023-11-03T02:23:31.501Z,0.90
2023-11-03T02:26:16.772Z,0.87
2023-11-03T02:29:01.835Z,0.87
2023-11-03T02:31:46.888Z,1.01
2023-11-03T02:34:32.168Z,0.92
2023-11-03T02:37:17.422Z,0.86
2023-11-03T02:40:02.869Z,0.77
2023-11-03T02:42:48.352Z,0.85
2023-11-03T02:45:33.204Z,0.89
2023-11-03T02:48:19.019Z,0.88
2023-11-03T02:51:04.256Z,0.93
2023-11-03T02:53:49.272Z,0.92
2023-11-03T02:56:34.251Z,0.85
2023-11-03T02:59:19.210Z,0.89
2023-11-03T03:02:04.593Z,0.99
2023-11-03T03:04:50.048Z,0.86
2023-11-03T03:07:35.496Z,0.87
2023-11-03T03:10:20.663Z,0.81
2023-11-03T03:13:06.045Z,0.82
2023-11-03T03:15:51.643Z,0.70
2023-11-03T03:18:36.762Z,0.89
2023-11-03T03:21:22.002Z,0.85
2023-11-03T03:24:07.368Z,0.91
2023-11-03T03:26:52.355Z,0.80
2023-11-03T03:29:38.009Z,0.76
2023-11-03T03:32:23.663Z,0.94
2023-11-03T03:35:09.135Z,0.84
2023-11-03T03:37:54.508Z,0.76
2023-11-03T03:40:39.953Z,0.72
2023-11-03T03:43:25.527Z,0.79
2023-11-03T03:46:10.986Z,0.79
2023-11-03T03:48:56.262Z,0.80
2023-11-03T03:51:41.619Z,0.81
2023-11-03T03:54:26.607Z,0.74
2023-11-03T03:57:12.003Z,0.73
2023-11-03T03:59:57.606Z,0.78
2023-11-03T04:02:42.712Z,0.70
2023-11-03T04:05:28.080Z,0.72
2023-11-03T04:08:13.531Z,0.80
2023-11-03T04:10:58.865Z,0.78
2023-11-03T04:13:44.475Z,0.70
2023-11-03T04:16:31.337Z,0.74
2023-11-03T04:19:16.954Z,0.82
2023-11-03T04:22:02.625Z,0.80
2023-11-03T04:24:48.234Z,0.76
2023-11-03T04:27:33.611Z,0.83
2023-11-03T04:30:18.722Z,0.75
2023-11-03T04:33:04.306Z,0.68
2023-11-03T04:35:49.602Z,0.91
2023-11-03T04:38:34.543Z,0.80
2023-11-03T04:41:19.378Z,0.73
2023-11-03T04:44:04.333Z,0.77
2023-11-03T04:46:49.374Z,0.78
2023-11-03T04:49:34.865Z,0.80
2023-11-03T04:52:20.013Z,0.73
2023-11-03T04:55:05.556Z,0.74
2023-11-03T04:57:51.047Z,0.71
2023-11-03T05:00:36.519Z,0.76
2023-11-03T05:03:22.056Z,0.67
2023-11-03T05:06:07.676Z,0.76
2023-11-03T05:08:53.228Z,0.66
2023-11-03T05:11:38.754Z,0.69
2023-11-03T05:14:24.483Z,0.69
2023-11-03T05:17:10.161Z,0.63
2023-11-03T05:19:55.400Z,0.71
2023-11-03T05:22:40.779Z,0.68
2023-11-03T05:25:26.260Z,0.55
2023-11-03T05:28:11.832Z,0.79
2023-11-03T05:30:57.162Z,0.68
2023-11-03T05:33:42.624Z,0.69
2023-11-03T05:36:28.272Z,0.77
2023-11-03T05:39:13.612Z,0.74
2023-11-03T05:41:58.756Z,0.71
2023-11-03T05:44:43.709Z,0.78
2023-11-03T05:47:28.668Z,0.77
2023-11-03T05:50:14.289Z,0.69
2023-11-03T05:52:59.393Z,0.61
2023-11-03T05:55:44.902Z,0.63
2023-11-03T05:58:30.326Z,0.67
2023-11-03T06:01:15.759Z,0.65
2023-11-03T06:04:01.191Z,0.66
2023-11-03T06:06:46.678Z,0.71
2023-11-03T06:09:32.128Z,0.97
2023-11-03T06:12:17.477Z,0.75
2023-11-03T06:15:03.047Z,0.65
2023-11-03T06:17:48.227Z,0.63
2023-11-03T06:20:33.604Z,0.65
2023-11-03T06:23:19.362Z,0.68
2023-11-03T06:26:04.868Z,0.59
2023-11-03T06:28:49.925Z,0.76
2023-11-03T06:31:36.983Z,0.64
2023-11-03T06:34:22.598Z,0.84
2023-11-03T06:37:08.075Z,0.79
2023-11-03T06:39:53.523Z,0.93
2023-11-03T06:42:39.007Z,0.88
2023-11-03T06:45:24.167Z,1.16
2023-11-03T06:48:09.576Z,1.09
2023-11-03T06:50:55.281Z,1.01
2023-11-03T06:53:40.785Z,1.19
2023-11-03T06:56:26.180Z,1.07
2023-11-03T06:59:11.645Z,0.94
2023-11-03T07:01:57.103Z,1.09
2023-11-03T07:04:42.783Z,1.31
2023-11-03T07:07:28.142Z,1.11
2023-11-03T07:10:13.262Z,1.40
2023-11-03T07:12:58.536Z,1.39
2023-11-03T07:15:44.007Z,1.32
2023-11-03T07:18:29.448Z,1.45
2023-11-03T07:21:14.944Z,1.33
2023-11-03T07:24:01.482Z,1.42
2023-11-03T07:26:48.384Z,1.37
2023-11-03T07:29:34.302Z,1.33
2023-11-03T07:32:20.241Z,1.45
2023-11-03T07:35:05.698Z,1.57
2023-11-03T07:37:51.237Z,1.47
2023-11-03T07:40:36.341Z,1.73
2023-11-03T07:43:21.828Z,1.50
2023-11-03T07:46:07.480Z,1.45
2023-11-03T07:48:52.761Z,1.58
2023-11-03T07:51:38.034Z,1.50
2023-11-03T07:54:23.128Z,1.58
2023-11-03T07:57:08.672Z,1.46
2023-11-03T07:59:54.227Z,1.23
2023-11-03T08:02:39.708Z,1.39
2023-11-03T08:05:25.238Z,1.38
2023-11-03T08:08:10.584Z,1.37
2023-11-03T08:10:56.201Z,1.38
2023-11-03T08:13:41.688Z,1.38
2023-11-03T08:16:27.120Z,1.30
2023-11-03T08:19:12.643Z,1.50
2023-11-03T08:21:57.892Z,1.36
2023-11-03T08:24:43.313Z,1.44
2023-11-03T08:27:28.602Z,1.44
2023-11-03T08:30:14.246Z,1.43
2023-11-03T08:32:59.646Z,1.36
2023-11-03T08:35:44.941Z,1.46
2023-11-03T08:38:29.985Z,1.40
2023-11-03T08:41:14.985Z,1.39
2023-11-03T08:44:00.643Z,1.47
2023-11-03T08:46:46.024Z,1.29
2023-11-03T08:49:31.592Z,1.21
2023-11-03T08:52:17.017Z,1.25
2023-11-03T08:55:02.566Z,1.40
2023-11-03T08:57:48.141Z,1.34
2023-11-03T09:00:33.479Z,1.22
2023-11-03T09:03:19.214Z,1.31
2023-11-03T09:06:05.539Z,1.35
2023-11-03T09:08:52.004Z,1.17
2023-11-03T09:11:37.453Z,1.16
2023-11-03T09:14:22.816Z,1.29
2023-11-03T09:17:08.324Z,1.09
2023-11-03T09:19:53.320Z,1.20
2023-11-03T09:22:40.240Z,1.04
2023-11-03T09:25:26.794Z,1.25
2023-11-03T09:28:12.450Z,1.01
2023-11-03T09:30:57.690Z,1.02
2023-11-03T09:33:42.968Z,1.13
2023-11-03T09:36:28.573Z,1.10
2023-11-03T09:39:14.175Z,1.14
2023-11-03T09:41:59.662Z,1.15
2023-11-03T09:44:45.068Z,1.12
2023-11-03T09:47:30.321Z,1.25
2023-11-03T09:50:15.657Z,1.02
2023-11-03T09:53:01.202Z,1.23
2023-11-03T09:55:46.754Z,1.15
2023-11-03T09:58:32.272Z,1.33
2023-11-03T10:01:17.885Z,1.26
2023-11-03T10:04:03.364Z,1.11
2023-11-03T10:06:48.695Z,0.95
2023-11-03T10:09:34.189Z,1.09
2023-11-03T10:12:19.845Z,1.20
2023-11-03T10:15:05.465Z,1.12
2023-11-03T10:17:50.821Z,1.04
2023-11-03T10:20:36.268Z,1.21
2023-11-03T10:23:21.800Z,1.16
2023-11-03T10:26:07.226Z,0.92
2023-11-03T10:28:52.792Z,1.24
2023-11-03T10:31:37.836Z,1.01
2023-11-03T10:34:23.973Z,0.97
2023-11-03T10:37:09.390Z,0.94
2023-11-03T10:39:54.612Z,0.99
2023-11-03T10:42:40.104Z,1.07
2023-11-03T10:45:25.597Z,0.92
2023-11-03T10:48:11.169Z,0.88
2023-11-03T10:50:56.447Z,1.01
2023-11-03T10:53:42.169Z,0.85
2023-11-03T10:56:38.781Z,0.90
2023-11-03T10:59:34.853Z,0.96
2023-11-03T11:02:20.525Z,1.01
2023-11-03T11:05:06.269Z,0.97
2023-11-03T11:07:51.498Z,0.92
2023-11-03T11:10:36.995Z,1.08
2023-11-03T11:13:22.764Z,0.97
2023-11-03T11:16:08.116Z,0.96
2023-11-03T11:18:53.976Z,0.91
2023-11-03T11:21:39.294Z,0.95
2023-11-03T11:24:24.513Z,1.30
2023-11-03T11:27:10.154Z,0.83
2023-11-03T11:29:55.775Z,0.94
2023-11-03T11:32:41.529Z,1.07
2023-11-03T11:35:26.951Z,0.84
2023-11-03T11:38:12.370Z,1.04
2023-11-03T11:40:57.200Z,1.03
2023-11-03T11:43:46.811Z,0.94
2023-11-03T11:46:32.755Z,0.95
2023-11-03T11:49:18.355Z,1.06
2023-11-03T11:52:03.841Z,0.98
2023-11-03T11:54:49.515Z,0.89
2023-11-03T11:57:34.941Z,0.75
2023-11-03T12:00:20.611Z,0.89
2023-11-03T12:03:06.111Z,0.89
2023-11-03T12:05:51.451Z,0.87
2023-11-03T12:08:36.989Z,0.78
2023-11-03T12:11:22.493Z,0.98
2023-11-03T12:14:07.957Z,0.70
2023-11-03T12:16:53.382Z,0.81
2023-11-03T12:19:39.261Z,0.93
2023-11-03T12:22:24.844Z,0.88
2023-11-03T12:25:10.277Z,0.80
2023-11-03T12:27:55.972Z,0.82
2023-11-03T12:30:41.256Z,0.84
2023-11-03T12:33:26.988Z,1.07
2023-11-03T12:36:12.363Z,0.69
2023-11-03T12:38:57.709Z,0.81
2023-11-03T12:41:43.384Z,0.79
2023-11-03T12:44:28.680Z,0.87
2023-11-03T12:47:14.139Z,0.86
2023-11-03T12:49:59.459Z,0.99
2023-11-03T12:52:44.799Z,0.88
2023-11-03T12:55:30.043Z,0.72
2023-11-03T12:58:15.635Z,0.74
2023-11-03T13:01:00.936Z,0.95
2023-11-03T13:03:46.375Z,0.83
2023-11-03T13:06:31.804Z,0.90
2023-11-03T13:09:17.221Z,0.84
2023-11-03T13:12:02.753Z,0.84
2023-11-03T13:14:48.082Z,0.90
2023-11-03T13:17:32.931Z,0.76
2023-11-03T13:20:18.497Z,0.79
2023-11-03T13:23:04.006Z,0.84
2023-11-03T13:25:49.556Z,0.87
2023-11-03T13:28:35.175Z,0.86
2023-11-03T13:31:20.674Z,0.93
2023-11-03T13:34:06.182Z,0.96
2023-11-03T13:36:51.654Z,0.89
2023-11-03T13:39:37.157Z,0.91
2023-11-03T13:42:22.678Z,0.91
2023-11-03T13:45:07.666Z,1.12
2023-11-03T13:47:53.381Z,1.05
2023-11-03T13:50:38.833Z,1.11
2023-11-03T13:53:24.249Z,1.29
2023-11-03T13:56:09.871Z,1.20
2023-11-03T13:58:55.212Z,1.20
2023-11-03T14:01:40.966Z,1.24
2023-11-03T14:04:26.457Z,1.24
2023-11-03T14:07:14.006Z,1.36
2023-11-03T14:12:43.484Z,1.25
2023-11-03T14:15:28.927Z,1.42
2023-11-03T14:18:14.416Z,1.37
2023-11-03T14:20:59.643Z,1.71
2023-11-03T14:23:46.525Z,2.30
2023-11-03T14:26:32.776Z,1.94
2023-11-03T14:29:18.536Z,1.72
2023-11-03T14:32:03.991Z,1.79
2023-11-03T14:34:49.592Z,1.84
2023-11-03T14:37:35.103Z,1.68
2023-11-03T14:40:20.552Z,1.66
2023-11-03T14:43:06.026Z,1.51
2023-11-03T14:45:51.602Z,1.78
2023-11-03T14:48:36.619Z,1.48
2023-11-03T14:51:22.198Z,1.27
2023-11-03T14:54:07.589Z,1.35
2023-11-03T14:56:52.502Z,1.14
2023-11-03T14:59:37.863Z,1.55
2023-11-03T15:02:23.599Z,1.23
2023-11-03T15:05:09.040Z,1.21
2023-11-03T15:07:54.473Z,1.23
2023-11-03T15:10:40.016Z,1.24
2023-11-03T15:13:25.334Z,1.10
2023-11-03T15:16:10.776Z,1.09
2023-11-03T15:18:56.157Z,1.01
2023-11-03T15:21:41.538Z,0.89
2023-11-03T15:24:26.635Z,1.02
2023-11-03T15:27:12.031Z,1.01
2023-11-03T15:29:57.313Z,1.03
2023-11-03T15:32:42.831Z,0.95
2023-11-03T15:35:28.587Z,0.98
2023-11-03T15:38:14.056Z,1.02
2023-11-03T15:40:59.497Z,1.06
2023-11-03T15:43:45.045Z,0.93
2023-11-03T15:46:30.536Z,0.98
2023-11-03T15:49:15.848Z,0.99
2023-11-03T15:52:01.449Z,0.97
2023-11-03T15:54:46.765Z,1.17
2023-11-03T15:57:32.429Z,0.83
2023-11-03T16:00:17.870Z,0.92
2023-11-03T16:03:03.458Z,1.04
2023-11-03T16:05:48.940Z,0.96
2023-11-03T16:08:34.224Z,0.91
2023-11-03T16:11:19.853Z,1.12
2023-11-03T16:14:05.282Z,0.86
2023-11-03T16:16:50.812Z,0.80
2023-11-03T16:19:36.429Z,0.84
2023-11-03T16:22:21.955Z,1.07
2023-11-03T16:25:07.964Z,0.84
2023-11-03T16:27:53.923Z,0.76
2023-11-03T16:30:39.529Z,0.73
2023-11-03T16:33:24.993Z,0.65
2023-11-03T16:36:10.362Z,0.79
2023-11-03T16:38:56.092Z,0.85
2023-11-03T16:41:41.775Z,0.83
2023-11-03T16:44:27.338Z,0.83
2023-11-03T16:47:12.750Z,0.86
2023-11-03T16:49:58.395Z,0.93
2023-11-03T16:52:43.963Z,0.82
2023-11-03T16:55:29.250Z,0.81
2023-11-03T16:58:14.497Z,0.76
2023-11-03T17:00:59.995Z,0.88
2023-11-03T17:03:45.657Z,0.92
2023-11-03T17:06:31.025Z,1.05
2023-11-03T17:09:16.391Z,0.81
2023-11-03T17:12:02.042Z,0.88
2023-11-03T17:14:47.592Z,0.78
2023-11-03T17:17:33.202Z,0.77
2023-11-03T17:20:18.765Z,0.89
2023-11-03T17:23:04.208Z,0.73
2023-11-03T17:25:49.860Z,0.89
2023-11-03T17:28:35.190Z,0.97
2023-11-03T17:31:20.518Z,0.83
2023-11-03T17:34:06.117Z,1.08
2023-11-03T17:36:51.452Z,0.82
2023-11-03T17:39:36.990Z,0.89
2023-11-03T17:42:22.458Z,0.83
2023-11-03T17:45:08.030Z,0.99
2023-11-03T17:47:54.912Z,0.88
2023-11-03T17:50:40.189Z,0.94
2023-11-03T17:53:25.932Z,0.83
2023-11-03T17:56:11.189Z,0.76
2023-11-03T17:58:56.802Z,0.91
2023-11-03T18:01:42.394Z,0.94
2023-11-03T18:04:27.908Z,0.77
2023-11-03T18:07:13.489Z,0.88
2023-11-03T18:09:58.748Z,0.95
2023-11-03T18:12:44.158Z,1.08
2023-11-03T18:15:29.548Z,0.72
2023-11-03T18:18:15.205Z,0.95
2023-11-03T18:21:00.784Z,1.01
2023-11-03T18:23:46.261Z,0.92
2023-11-03T18:26:31.861Z,0.97
2023-11-03T18:29:17.360Z,0.90
2023-11-03T18:32:02.785Z,0.96
2023-11-03T18:34:48.341Z,0.95
2023-11-03T18:37:33.616Z,0.93
2023-11-03T18:40:19.088Z,0.72
2023-11-03T18:43:04.554Z,0.83
2023-11-03T18:45:49.899Z,0.89
2023-11-03T18:48:35.542Z,0.93
2023-11-03T18:51:27.441Z,0.77
2023-11-03T18:55:23.504Z,0.80
2023-11-03T19:00:26.640Z,0.77
2023-11-03T19:07:28.981Z,0.89
2023-11-03T19:09:05.742Z,0.83
2023-11-03T19:11:51.273Z,0.81
2023-11-03T19:14:36.943Z,0.88
2023-11-03T19:17:22.409Z,0.91
2023-11-03T19:20:08.067Z,0.81
2023-11-03T19:22:53.505Z,1.07
2023-11-03T19:25:39.104Z,0.82
2023-11-03T19:28:24.613Z,0.76
2023-11-03T19:31:10.019Z,0.85
2023-11-03T19:33:55.139Z,0.89
2023-11-03T19:36:40.563Z,0.77
2023-11-03T19:39:26.070Z,0.77
2023-11-03T19:42:13.187Z,0.71
2023-11-03T19:44:59.966Z,0.81
2023-11-03T19:47:45.542Z,0.81
2023-11-03T19:50:30.982Z,0.80
2023-11-03T19:53:16.643Z,0.80
2023-11-03T19:56:02.176Z,0.70
2023-11-03T19:58:47.631Z,0.61
2023-11-03T20:01:33.187Z,0.72
2023-11-03T20:04:18.811Z,0.71
2023-11-03T20:07:04.192Z,0.69
2023-11-03T20:09:49.777Z,0.74
2023-11-03T20:12:34.858Z,0.74
2023-11-03T20:15:20.194Z,0.87
2023-11-03T20:18:05.830Z,0.75
2023-11-03T20:20:51.176Z,0.79
2023-11-03T20:23:36.453Z,0.83
2023-11-03T20:26:21.816Z,1.03
2023-11-03T20:29:06.792Z,0.81
2023-11-03T20:31:52.191Z,0.72
2023-11-03T20:34:37.852Z,0.77
2023-11-03T20:37:23.261Z,0.66
2023-11-03T20:40:08.541Z,0.89
2023-11-03T20:42:54.022Z,0.73
2023-11-03T20:45:39.482Z,0.75
2023-11-03T20:48:25.087Z,0.74
2023-11-03T20:51:10.567Z,0.81
2023-11-03T20:53:56.061Z,0.73
2023-11-03T20:56:41.098Z,0.93
2023-11-03T20:59:26.134Z,0.71
2023-11-03T21:02:11.710Z,0.81
2023-11-03T21:04:57.343Z,0.80
2023-11-03T21:07:42.841Z,0.79
2023-11-03T21:10:28.426Z,0.78
2023-11-03T21:13:13.953Z,0.91
2023-11-03T21:15:59.124Z,0.71
2023-11-03T21:18:44.633Z,0.79
2023-11-03T21:21:30.167Z,0.69
2023-11-03T21:24:15.624Z,0.81
2023-11-03T21:27:01.079Z,0.71
2023-11-03T21:29:46.620Z,0.81
2023-11-03T21:32:32.229Z,0.81
2023-11-03T21:35:17.786Z,0.76
2023-11-03T21:38:03.358Z,0.67
2023-11-03T21:40:48.905Z,0.62
2023-11-03T21:43:34.586Z,0.65
2023-11-03T21:46:20.027Z,0.67
2023-11-03T21:49:05.461Z,0.70
2023-11-03T21:51:50.788Z,0.97
2023-11-03T21:54:36.266Z,0.74
2023-11-03T21:57:21.916Z,0.60
2023-11-03T22:00:07.311Z,0.83
2023-11-03T22:02:53.073Z,0.81
2023-11-03T22:05:38.218Z,0.65
2023-11-03T22:08:23.255Z,0.82
2023-11-03T22:11:08.674Z,0.70
2023-11-03T22:13:54.448Z,0.74
2023-11-03T22:16:39.984Z,0.66
2023-11-03T22:19:25.630Z,0.72
2023-11-03T22:22:11.009Z,0.67
2023-11-03T22:24:56.286Z,0.64
2023-11-03T22:27:41.926Z,0.79
2023-11-03T22:30:27.567Z,0.65
2023-11-03T22:33:13.174Z,0.76
2023-11-03T22:35:58.663Z,0.60
2023-11-03T22:38:43.609Z,0.68
2023-11-03T22:41:29.154Z,0.70
2023-11-03T22:44:14.661Z,0.76
2023-11-03T22:46:59.663Z,0.77
2023-11-03T22:49:45.302Z,0.77
2023-11-03T22:52:30.748Z,0.70
2023-11-03T22:55:15.895Z,0.66
2023-11-03T22:58:01.360Z,0.70
2023-11-03T23:00:46.754Z,0.77
2023-11-03T23:03:32.373Z,0.71
2023-11-03T23:06:17.680Z,0.64
2023-11-03T23:09:02.628Z,0.66
2023-11-03T23:11:48.176Z,0.70
2023-11-03T23:14:33.531Z,0.64
2023-11-03T23:17:18.539Z,0.61
2023-11-03T23:20:03.996Z,0.61
2023-11-03T23:22:49.593Z,0.69
2023-11-03T23:25:35.158Z,0.68
2023-11-03T23:28:20.671Z,0.67
2023-11-03T23:31:06.093Z,0.66
2023-11-03T23:33:51.660Z,0.73
2023-11-03T23:36:37.115Z,0.68
2023-11-03T23:39:22.536Z,0.54
2023-11-03T23:42:07.949Z,0.78
2023-11-03T23:44:53.534Z,0.62
2023-11-03T23:47:38.916Z,0.66
2023-11-03T23:50:24.461Z,0.68
2023-11-03T23:53:09.982Z,0.69
2023-11-03T23:55:54.920Z,0.72
2023-11-03T23:58:39.946Z,0.79
